Time;durP1;ratioP1;P1;durP2;ratioP2;P2;SDS_P1;SDS_P2;PMS_P1;PMS_P2;Temp;Humidity;BMP_temperature;BMP_pressure;BME280_temperature;BME280_humidity;BME280_pressure;Samples;Min_cycle;Max_cycle;Signal;HPM_P1;HPM_P2
2023/05/17 00:00:43;;;;;;;3.60;2.17;;;8.90;90.90;;;;;;5205036;28;20422;-46
2023/05/17 00:03:14;;;;;;;6.03;2.10;;;8.90;91.30;;;;;;5203571;28;20269;-46
2023/05/17 00:05:44;;;;;;;4.80;2.47;;;8.90;91.90;;;;;;5206627;28;20234;-46
2023/05/17 00:08:15;;;;;;;2.37;2.17;;;8.80;92.50;;;;;;5204360;28;20297;-46
2023/05/17 00:10:46;;;;;;;4.20;1.90;;;8.80;93.40;;;;;;5205088;28;20171;-46
2023/05/17 00:13:17;;;;;;;7.50;2.10;;;8.80;94.40;;;;;;5203640;28;20230;-46
2023/05/17 00:15:47;;;;;;;4.37;2.03;;;8.70;95.60;;;;;;5204359;28;20211;-47
2023/05/17 00:18:18;;;;;;;4.90;2.20;;;8.70;96.70;;;;;;5207028;28;20925;-47
2023/05/17 00:20:48;;;;;;;11.77;2.40;;;8.70;98.30;;;;;;5206308;28;20199;-46
2023/05/17 00:23:19;;;;;;;2.30;1.97;;;8.70;99.70;;;;;;5204712;28;20662;-47
2023/05/17 00:25:50;;;;;;;9.33;1.97;;;8.70;99.90;;;;;;5215201;28;20203;-46
2023/05/17 00:28:20;;;;;;;5.30;2.37;;;8.60;99.90;;;;;;5202093;28;20218;-46
2023/05/17 00:30:51;;;;;;;15.90;2.60;;;8.60;99.90;;;;;;5204465;28;20245;-47
2023/05/17 00:33:21;;;;;;;8.13;2.73;;;8.60;99.90;;;;;;5203341;28;20184;-46
2023/05/17 00:35:52;;;;;;;6.73;2.43;;;8.60;99.90;;;;;;5209220;28;20298;-44
2023/05/17 00:38:23;;;;;;;6.90;2.40;;;8.50;99.90;;;;;;5205860;28;20210;-47
2023/05/17 00:40:53;;;;;;;7.87;2.60;;;8.50;99.90;;;;;;5202403;28;20176;-46
2023/05/17 00:43:24;;;;;;;9.23;3.20;;;8.40;99.90;;;;;;5216382;28;20636;-47
2023/05/17 00:45:55;;;;;;;4.50;2.30;;;8.40;99.90;;;;;;5202934;28;20208;-47
2023/05/17 00:48:28;;;;;;;11.60;2.83;;;8.40;99.90;;;;;;5207161;28;20980;-47
2023/05/17 00:50:59;;;;;;;4.10;2.70;;;8.40;99.90;;;;;;5203939;28;20267;-46
2023/05/17 00:53:30;;;;;;;7.77;2.57;;;8.40;99.90;;;;;;5201790;28;20853;-45
2023/05/17 00:56:00;;;;;;;9.43;2.87;;;8.40;99.90;;;;;;5202796;28;20204;-45
2023/05/17 00:58:31;;;;;;;7.77;2.87;;;8.40;99.90;;;;;;5205613;28;20267;-48
2023/05/17 01:01:02;;;;;;;6.53;3.23;;;8.30;99.90;;;;;;5208968;28;20184;-45
2023/05/17 01:03:33;;;;;;;5.23;2.80;;;8.40;99.90;;;;;;5202050;28;20212;-46
2023/05/17 01:06:05;;;;;;;11.90;3.27;;;8.30;99.90;;;;;;5201040;28;20952;-46
2023/05/17 01:08:36;;;;;;;7.33;2.60;;;8.30;99.90;;;;;;5202625;28;20559;-46
2023/05/17 01:11:30;;;;;;;7.20;2.90;;;8.30;99.90;;;;;;5199060;28;20438;-45
2023/05/17 01:14:38;;;;;;;10.73;3.13;;;8.30;99.90;;;;;;5199785;28;20438;-46
2023/05/17 01:17:17;;;;;;;9.67;3.03;;;8.30;99.90;;;;;;5201836;28;21024;-45
2023/05/17 01:20:11;;;;;;;14.43;3.63;;;8.20;99.90;;;;;;5198134;28;20561;-46
2023/05/17 01:23:06;;;;;;;6.83;3.13;;;8.20;99.90;;;;;;5199945;28;20473;-45
2023/05/17 01:26:07;;;;;;;10.40;3.50;;;8.20;99.90;;;;;;5200964;28;20549;-47
2023/05/17 01:28:40;;;;;;;8.27;2.67;;;8.20;99.90;;;;;;5201386;28;20438;-46
2023/05/17 01:31:11;;;;;;;9.70;3.00;;;8.20;99.90;;;;;;5203429;28;20544;-47
2023/05/17 01:33:42;;;;;;;8.63;3.20;;;8.10;99.90;;;;;;5203562;28;20498;-47
2023/05/17 01:36:13;;;;;;;10.00;3.83;;;8.10;99.90;;;;;;5197407;28;20560;-46
2023/05/17 01:38:44;;;;;;;5.10;3.00;;;8.00;99.90;;;;;;5200942;28;20656;-47
2023/05/17 01:41:29;;;;;;;10.80;3.40;;;8.10;99.90;;;;;;5198718;28;20574;-46
2023/05/17 01:44:21;;;;;;;14.03;3.33;;;8.00;99.90;;;;;;5198261;28;20216;-47
2023/05/17 01:47:12;;;;;;;8.40;2.97;;;8.00;99.90;;;;;;5199987;28;20457;-46
2023/05/17 01:49:47;;;;;;;8.03;2.80;;;8.00;99.90;;;;;;5204833;28;20425;-46
2023/05/17 01:52:27;;;;;;;5.40;3.50;;;8.00;99.90;;;;;;5203195;28;20423;-46
2023/05/17 01:55:17;;;;;;;6.47;3.20;;;8.00;99.90;;;;;;5202409;28;20422;-45
2023/05/17 01:57:52;;;;;;;11.20;3.70;;;8.00;99.90;;;;;;5202263;28;20433;-47
2023/05/17 02:00:27;;;;;;;7.80;3.70;;;8.00;99.90;;;;;;5201672;28;20438;-46
2023/05/17 02:02:57;;;;;;;8.70;3.80;;;8.00;99.90;;;;;;5202372;28;20434;-46
2023/05/17 02:05:28;;;;;;;9.63;2.77;;;8.10;99.90;;;;;;5199074;28;20438;-45
2023/05/17 02:07:58;;;;;;;12.47;3.60;;;8.10;99.90;;;;;;5199040;28;20266;-45
2023/05/17 02:10:29;;;;;;;17.43;4.57;;;8.10;99.90;;;;;;5200538;28;20653;-46
2023/05/17 02:13:00;;;;;;;13.93;3.77;;;8.00;99.90;;;;;;5201765;28;20176;-46
2023/05/17 02:15:31;;;;;;;16.30;2.90;;;7.90;99.90;;;;;;5200930;28;20550;-46
2023/05/17 02:18:02;;;;;;;9.23;3.60;;;7.90;99.90;;;;;;5202423;28;20202;-46
2023/05/17 02:20:32;;;;;;;11.57;3.07;;;7.90;99.90;;;;;;5202992;28;20438;-45
2023/05/17 02:23:03;;;;;;;13.00;3.30;;;7.90;99.90;;;;;;5200800;28;20541;-46
2023/05/17 02:25:34;;;;;;;9.30;3.70;;;8.00;99.90;;;;;;5202747;28;20188;-45
2023/05/17 02:28:04;;;;;;;13.60;3.83;;;8.00;99.90;;;;;;5204510;28;20210;-45
2023/05/17 02:30:39;;;;;;;9.20;3.50;;;8.00;99.90;;;;;;5203347;28;20179;-45
2023/05/17 02:33:10;;;;;;;8.67;3.47;;;8.00;99.90;;;;;;5197839;28;20301;-45
2023/05/17 02:35:40;;;;;;;12.50;3.50;;;8.00;99.90;;;;;;5203535;28;20536;-45
2023/05/17 02:38:11;;;;;;;10.63;3.20;;;8.10;99.90;;;;;;5198479;28;20639;-47
2023/05/17 02:40:42;;;;;;;12.93;3.97;;;8.20;99.90;;;;;;5200266;28;20266;-46
2023/05/17 02:43:12;;;;;;;4.83;2.50;;;8.30;99.90;;;;;;5201982;28;20222;-46
2023/05/17 02:45:44;;;;;;;22.57;3.97;;;8.50;99.90;;;;;;5206685;28;20200;-46
2023/05/17 02:48:14;;;;;;;11.53;3.03;;;8.60;99.90;;;;;;5202624;28;20176;-46
2023/05/17 02:50:45;;;;;;;11.13;3.90;;;8.60;99.90;;;;;;5202980;28;20445;-46
2023/05/17 02:53:15;;;;;;;13.50;3.53;;;8.60;99.90;;;;;;5201572;28;20550;-47
2023/05/17 02:55:46;;;;;;;27.00;3.87;;;8.70;99.90;;;;;;5206243;28;20214;-46
2023/05/17 02:58:17;;;;;;;9.63;3.00;;;8.80;99.90;;;;;;5202303;28;20611;-46
2023/05/17 03:00:47;;;;;;;13.47;3.47;;;8.80;99.90;;;;;;5200020;28;20188;-46
2023/05/17 03:03:18;;;;;;;10.50;4.47;;;8.80;99.90;;;;;;5200168;28;20203;-46
2023/05/17 03:05:48;;;;;;;13.80;3.50;;;8.80;99.90;;;;;;5203001;28;20208;-46
2023/05/17 03:08:19;;;;;;;11.63;3.87;;;8.90;99.90;;;;;;5200054;28;20598;-47
2023/05/17 03:10:50;;;;;;;13.60;3.10;;;8.90;99.90;;;;;;5200815;28;20222;-46
2023/05/17 03:13:20;;;;;;;8.67;3.97;;;8.80;99.90;;;;;;5199702;28;20640;-46
2023/05/17 03:15:51;;;;;;;9.40;3.53;;;8.90;99.90;;;;;;5202340;28;20215;-46
2023/05/17 03:18:22;;;;;;;20.20;4.13;;;8.80;99.90;;;;;;5200186;28;20184;-46
2023/05/17 03:20:52;;;;;;;15.77;3.80;;;8.90;99.90;;;;;;5194683;28;20188;-46
2023/05/17 03:23:23;;;;;;;12.20;4.13;;;8.80;99.90;;;;;;5201979;28;20258;-46
2023/05/17 03:25:53;;;;;;;6.53;3.37;;;8.80;99.90;;;;;;5202238;28;20202;-46
2023/05/17 03:28:24;;;;;;;6.80;3.60;;;8.80;99.90;;;;;;5205283;28;20270;-45
2023/05/17 03:30:55;;;;;;;14.13;4.00;;;8.70;99.90;;;;;;5206202;28;20628;-45
2023/05/17 03:33:25;;;;;;;10.63;3.67;;;8.70;99.90;;;;;;5199115;28;20287;-47
2023/05/17 03:35:56;;;;;;;7.93;3.57;;;8.80;99.90;;;;;;5206513;28;20221;-47
2023/05/17 03:38:26;;;;;;;16.47;4.03;;;8.80;99.90;;;;;;5203584;28;20581;-46
2023/05/17 03:40:57;;;;;;;7.90;2.90;;;8.80;99.90;;;;;;5218406;28;20184;-46
2023/05/17 03:43:28;;;;;;;10.00;4.03;;;9.00;99.90;;;;;;5202049;28;20203;-46
2023/05/17 03:45:58;;;;;;;9.27;3.20;;;9.10;99.90;;;;;;5200040;28;20192;-46
2023/05/17 03:48:29;;;;;;;8.60;4.17;;;9.00;99.90;;;;;;5201485;28;20617;-46
2023/05/17 03:51:00;;;;;;;14.50;4.13;;;9.00;99.90;;;;;;5203681;28;20194;-46
2023/05/17 03:53:30;;;;;;;9.37;4.30;;;9.10;99.90;;;;;;5203388;28;20657;-47
2023/05/17 03:56:01;;;;;;;13.30;3.60;;;9.00;99.90;;;;;;5201505;28;20200;-46
2023/05/17 03:58:32;;;;;;;9.97;3.70;;;9.10;99.90;;;;;;5204522;28;20198;-45
2023/05/17 04:01:03;;;;;;;17.03;3.83;;;9.10;99.90;;;;;;5204269;28;20656;-46
2023/05/17 04:03:34;;;;;;;20.57;3.77;;;9.10;99.90;;;;;;5200750;28;20204;-46
2023/05/17 04:06:05;;;;;;;13.83;4.60;;;9.00;99.90;;;;;;5186249;28;21018;-46
2023/05/17 04:08:36;;;;;;;11.07;3.73;;;8.90;99.90;;;;;;5201431;28;20287;-46
2023/05/17 04:11:11;;;;;;;12.03;3.43;;;8.90;99.90;;;;;;5202619;28;20526;-46
2023/05/17 04:13:42;;;;;;;12.00;4.27;;;8.80;99.90;;;;;;5201532;28;20540;-48
2023/05/17 04:16:12;;;;;;;8.40;3.73;;;8.90;99.90;;;;;;5205209;28;20458;-45
2023/05/17 04:18:44;;;;;;;11.70;3.90;;;9.10;99.90;;;;;;5204160;28;20180;-46
2023/05/17 04:21:14;;;;;;;6.30;3.23;;;9.20;99.90;;;;;;5202304;28;20222;-46
2023/05/17 04:23:45;;;;;;;7.33;3.50;;;9.40;99.90;;;;;;5203505;28;20458;-47
2023/05/17 04:26:16;;;;;;;10.90;3.80;;;9.50;99.90;;;;;;5206795;28;20196;-45
2023/05/17 04:28:46;;;;;;;12.73;4.60;;;9.50;99.90;;;;;;5203926;28;20183;-47
2023/05/17 04:31:17;;;;;;;7.97;3.50;;;9.40;99.90;;;;;;5202274;28;20183;-46
2023/05/17 04:33:48;;;;;;;10.57;4.00;;;9.40;99.90;;;;;;5202333;28;20242;-46
2023/05/17 04:36:18;;;;;;;13.03;3.00;;;9.40;99.90;;;;;;5203435;28;20211;-46
2023/05/17 04:38:49;;;;;;;6.90;4.00;;;9.50;99.90;;;;;;5204016;28;20268;-46
2023/05/17 04:41:19;;;;;;;15.03;3.93;;;9.60;99.90;;;;;;5184603;28;20187;-45
2023/05/17 04:43:50;;;;;;;13.23;3.37;;;9.70;99.90;;;;;;5205497;28;20203;-47
2023/05/17 04:46:21;;;;;;;19.17;4.17;;;9.60;99.90;;;;;;5201518;28;20574;-47
2023/05/17 04:48:52;;;;;;;13.40;3.50;;;9.70;99.90;;;;;;5204582;28;20179;-47
2023/05/17 04:51:23;;;;;;;16.17;4.37;;;9.90;99.90;;;;;;5199958;28;20196;-47
2023/05/17 04:53:53;;;;;;;16.80;4.60;;;10.10;99.90;;;;;;5204317;28;20521;-46
2023/05/17 04:56:24;;;;;;;10.47;3.60;;;10.80;99.90;;;;;;5197591;28;20451;-45
2023/05/17 04:58:54;;;;;;;15.87;4.30;;;11.10;99.90;;;;;;5203510;28;20198;-47
2023/05/17 05:01:25;;;;;;;11.30;3.83;;;12.30;99.90;;;;;;5205654;28;20573;-46
2023/05/17 05:03:57;;;;;;;9.67;3.30;;;13.70;99.90;;;;;;5200591;28;20239;-46
2023/05/17 05:06:28;;;;;;;7.30;3.33;;;14.90;98.90;;;;;;5205900;28;20691;-46
2023/05/17 05:09:02;;;;;;;24.80;4.70;;;15.60;94.30;;;;;;5201322;28;20468;-46
2023/05/17 05:11:33;;;;;;;6.57;3.50;;;16.90;82.40;;;;;;5201770;28;20175;-47
2023/05/17 05:14:04;;;;;;;16.50;4.27;;;18.20;70.90;;;;;;5199579;28;20446;-46
2023/05/17 05:16:35;;;;;;;8.90;2.97;;;19.10;60.90;;;;;;5204072;28;20636;-46
2023/05/17 05:19:07;;;;;;;8.70;2.87;;;20.20;56.40;;;;;;5200075;28;20184;-45
2023/05/17 05:21:38;;;;;;;4.97;3.30;;;20.00;54.10;;;;;;5203071;28;20958;-47
2023/05/17 05:24:08;;;;;;;7.33;3.60;;;20.50;51.10;;;;;;5203573;28;21479;-47
2023/05/17 05:26:39;;;;;;;8.07;3.50;;;20.10;50.10;;;;;;5200653;28;20242;-46
2023/05/17 05:29:10;;;;;;;8.57;3.20;;;19.60;49.70;;;;;;5186703;28;20175;-46
2023/05/17 05:31:40;;;;;;;8.33;3.23;;;20.40;50.30;;;;;;5200960;28;20175;-48
2023/05/17 05:34:11;;;;;;;8.00;3.57;;;21.50;48.40;;;;;;5204333;28;20187;-46
2023/05/17 05:36:42;;;;;;;8.23;3.37;;;22.20;45.30;;;;;;5203112;28;20689;-46
2023/05/17 05:39:13;;;;;;;4.97;3.30;;;21.60;45.90;;;;;;5201032;28;20184;-46
2023/05/17 05:41:44;;;;;;;6.53;3.50;;;21.60;46.20;;;;;;5202205;28;20512;-47
2023/05/17 05:44:15;;;;;;;9.23;3.27;;;21.00;46.00;;;;;;5204539;28;20192;-46
2023/05/17 05:46:46;;;;;;;7.10;2.90;;;20.20;47.10;;;;;;5201279;28;20431;-46
2023/05/17 05:49:16;;;;;;;14.40;3.40;;;19.10;48.60;;;;;;5203831;28;20180;-47
2023/05/17 05:51:47;;;;;;;6.47;2.93;;;17.50;51.20;;;;;;5201994;28;20183;-45
2023/05/17 05:54:17;;;;;;;10.30;3.67;;;16.10;53.90;;;;;;5203352;28;20184;-46
2023/05/17 05:56:50;;;;;;;12.20;3.80;;;15.20;57.30;;;;;;5202693;28;20199;-47
2023/05/17 05:59:20;;;;;;;13.77;3.53;;;15.40;56.70;;;;;;5200194;28;20184;-47
2023/05/17 06:01:51;;;;;;;14.47;3.90;;;14.50;57.30;;;;;;5199393;28;20419;-46
2023/05/17 06:04:22;;;;;;;13.43;3.33;;;14.70;59.40;;;;;;5201774;28;20246;-46
2023/05/17 06:06:53;;;;;;;6.40;3.00;;;14.20;60.50;;;;;;5206079;28;20226;-47
2023/05/17 06:09:24;;;;;;;9.43;3.20;;;16.00;60.40;;;;;;5199661;28;20203;-46
2023/05/17 06:11:54;;;;;;;6.70;2.93;;;18.40;54.40;;;;;;5200184;28;20430;-46
2023/05/17 06:14:25;;;;;;;12.23;3.23;;;20.20;48.60;;;;;;5199962;28;20183;-46
2023/05/17 06:16:55;;;;;;;5.67;2.87;;;20.60;44.70;;;;;;5202149;28;20246;-47
2023/05/17 06:19:26;;;;;;;8.43;3.10;;;20.50;44.00;;;;;;5199632;28;20183;-46
2023/05/17 06:21:57;;;;;;;7.90;2.63;;;17.80;46.60;;;;;;5208053;28;20671;-46
2023/05/17 06:24:27;;;;;;;4.03;2.37;;;15.90;49.10;;;;;;5200925;28;20290;-46
2023/05/17 06:26:58;;;;;;;8.43;2.70;;;14.10;52.00;;;;;;5200062;28;20199;-47
2023/05/17 06:29:28;;;;;;;12.20;2.70;;;13.10;54.30;;;;;;5203150;28;20593;-46
2023/05/17 06:31:59;;;;;;;7.20;3.40;;;14.20;56.00;;;;;;5204348;28;20230;-47
2023/05/17 06:34:30;;;;;;;7.20;2.40;;;17.60;50.70;;;;;;5204474;28;20194;-46
2023/05/17 06:37:00;;;;;;;14.80;3.27;;;17.50;48.20;;;;;;5200993;28;20596;-46
2023/05/17 06:39:31;;;;;;;5.03;2.50;;;17.40;48.30;;;;;;5198841;28;20267;-46
2023/05/17 06:42:01;;;;;;;6.60;2.50;;;16.30;49.70;;;;;;5197153;28;20288;-47
2023/05/17 06:44:32;;;;;;;6.50;2.60;;;14.80;51.40;;;;;;5199030;28;20250;-45
2023/05/17 06:47:03;;;;;;;11.50;2.53;;;13.70;53.50;;;;;;5203628;28;20223;-46
2023/05/17 06:49:34;;;;;;;5.40;2.40;;;14.50;53.60;;;;;;5202351;28;20187;-46
2023/05/17 06:52:04;;;;;;;8.47;2.67;;;14.80;51.80;;;;;;5198837;28;20271;-46
2023/05/17 06:54:35;;;;;;;5.80;3.17;;;16.30;49.80;;;;;;5198185;28;20211;-47
2023/05/17 06:57:06;;;;;;;10.07;2.20;;;19.50;46.00;;;;;;5181760;28;20195;-47
2023/05/17 06:59:36;;;;;;;11.50;2.70;;;21.80;39.50;;;;;;5201239;28;20199;-47
2023/05/17 07:02:07;;;;;;;4.27;2.50;;;22.60;36.40;;;;;;5205343;28;20266;-47
2023/05/17 07:04:39;;;;;;;3.13;2.20;;;23.10;35.20;;;;;;5216554;28;20691;-47
2023/05/17 07:07:10;;;;;;;6.03;2.03;;;22.30;34.40;;;;;;5204290;28;20738;-46
2023/05/17 07:09:41;;;;;;;10.13;2.97;;;21.70;34.30;;;;;;5199017;28;20430;-47
2023/05/17 07:12:11;;;;;;;13.00;2.90;;;21.80;35.10;;;;;;5204004;28;20962;-47
2023/05/17 07:14:42;;;;;;;8.77;2.90;;;22.70;33.60;;;;;;5204846;28;20645;-47
2023/05/17 07:17:12;;;;;;;4.83;2.07;;;23.30;33.20;;;;;;5203104;28;20211;-49
2023/05/17 07:19:43;;;;;;;4.47;2.40;;;23.90;32.80;;;;;;5218453;28;20175;-47
2023/05/17 07:22:14;;;;;;;7.53;2.20;;;24.30;30.80;;;;;;5205370;28;20179;-46
2023/05/17 07:24:45;;;;;;;10.30;3.00;;;23.50;29.60;;;;;;5202373;28;20195;-47
2023/05/17 07:27:16;;;;;;;7.90;2.23;;;22.20;31.60;;;;;;5197449;28;20461;-46
2023/05/17 07:29:46;;;;;;;14.13;2.50;;;21.60;32.30;;;;;;5206061;28;20230;-47
2023/05/17 07:32:17;;;;;;;10.47;2.20;;;21.10;33.40;;;;;;5202464;28;20198;-47
2023/05/17 07:34:47;;;;;;;5.17;2.60;;;21.10;34.20;;;;;;5206344;28;20254;-47
2023/05/17 07:37:18;;;;;;;5.30;1.97;;;21.20;33.90;;;;;;5196074;28;20631;-48
2023/05/17 07:39:49;;;;;;;6.47;2.33;;;21.50;34.30;;;;;;5204608;28;20176;-46
2023/05/17 07:42:19;;;;;;;13.50;3.03;;;22.90;32.20;;;;;;5197204;28;20185;-47
2023/05/17 07:44:50;;;;;;;6.30;3.23;;;22.20;32.30;;;;;;5201762;28;20229;-48
2023/05/17 07:47:20;;;;;;;7.93;2.30;;;23.00;33.30;;;;;;5203905;28;20648;-46
2023/05/17 07:49:51;;;;;;;9.50;2.30;;;23.00;33.80;;;;;;5206517;28;20578;-46
2023/05/17 07:52:22;;;;;;;9.37;3.30;;;23.60;33.60;;;;;;5207118;28;20182;-47
2023/05/17 07:54:52;;;;;;;14.10;3.10;;;21.70;35.10;;;;;;5204858;28;20186;-46
2023/05/17 07:57:26;;;;;;;5.50;2.07;;;20.30;37.00;;;;;;5205718;28;20295;-46
2023/05/17 07:59:56;;;;;;;5.83;2.07;;;20.20;36.80;;;;;;5203491;28;20176;-46
2023/05/17 08:02:27;;;;;;;10.83;2.60;;;21.50;35.30;;;;;;5204102;28;20449;-46
2023/05/17 08:04:57;;;;;;;13.63;2.30;;;23.10;32.10;;;;;;5204101;28;20239;-45
2023/05/17 08:07:28;;;;;;;6.33;2.10;;;24.30;31.00;;;;;;5187689;28;20601;-46
2023/05/17 08:09:58;;;;;;;7.50;2.50;;;24.10;29.70;;;;;;5203390;28;20180;-46
2023/05/17 08:12:29;;;;;;;5.00;2.30;;;22.40;30.00;;;;;;5205461;28;20184;-46
2023/05/17 08:15:00;;;;;;;6.30;2.80;;;22.60;30.00;;;;;;5204179;28;20321;-47
2023/05/17 08:17:30;;;;;;;7.70;2.00;;;23.50;30.00;;;;;;5203080;28;20222;-46
2023/05/17 08:20:01;;;;;;;10.73;2.27;;;23.30;29.90;;;;;;5204608;28;20218;-48
2023/05/17 08:22:32;;;;;;;5.60;1.87;;;22.70;29.50;;;;;;5203779;28;20180;-46
2023/05/17 08:25:03;;;;;;;5.80;1.90;;;22.00;29.40;;;;;;5201556;28;20701;-47
2023/05/17 08:27:33;;;;;;;4.70;1.83;;;21.90;29.60;;;;;;5200985;28;20687;-47
2023/05/17 08:30:05;;;;;;;5.03;1.83;;;21.90;30.30;;;;;;5204621;28;20431;-48
2023/05/17 08:32:35;;;;;;;6.60;2.57;;;22.40;30.20;;;;;;5202039;28;20666;-47
2023/05/17 08:35:06;;;;;;;14.53;2.37;;;22.40;30.30;;;;;;5205165;28;20492;-47
2023/05/17 08:37:37;;;;;;;5.03;2.50;;;22.20;30.20;;;;;;5205891;28;20287;-47
2023/05/17 08:40:08;;;;;;;8.40;2.63;;;21.20;31.90;;;;;;5204850;28;20621;-47
2023/05/17 08:42:40;;;;;;;5.00;2.30;;;21.50;32.40;;;;;;5204532;28;20438;-48
2023/05/17 08:45:12;;;;;;;8.23;2.60;;;21.00;32.90;;;;;;5187416;28;20211;-46
2023/05/17 08:47:45;;;;;;;5.77;2.57;;;19.60;34.80;;;;;;5204354;28;20512;-48
2023/05/17 08:50:16;;;;;;;8.90;2.80;;;18.70;34.50;;;;;;5191348;28;20564;-47
2023/05/17 08:52:47;;;;;;;10.57;2.40;;;17.50;35.60;;;;;;5203460;28;20790;-47
2023/05/17 08:55:19;;;;;;;10.77;2.50;;;16.90;37.70;;;;;;5199712;28;20488;-47
2023/05/17 08:57:50;;;;;;;34.17;8.80;;;16.20;39.50;;;;;;5215263;28;20434;-47
2023/05/17 09:00:24;;;;;;;4.70;1.90;;;15.90;40.50;;;;;;5201900;28;20435;-47
2023/05/17 09:02:55;;;;;;;8.60;2.60;;;15.20;38.50;;;;;;5218118;28;20949;-47
2023/05/17 09:05:27;;;;;;;9.53;2.53;;;14.50;39.90;;;;;;5201799;28;20466;-46
2023/05/17 09:07:58;;;;;;;6.90;2.70;;;14.20;40.70;;;;;;5203531;28;20938;-48
2023/05/17 09:10:30;;;;;;;7.37;2.40;;;14.10;41.30;;;;;;5198893;28;20798;-47
2023/05/17 09:13:01;;;;;;;20.50;3.00;;;14.00;40.10;;;;;;5200461;28;20952;-46
2023/05/17 09:15:33;;;;;;;10.33;2.93;;;13.90;40.00;;;;;;5204729;28;20496;-47
2023/05/17 09:18:03;;;;;;;5.60;2.43;;;13.70;41.30;;;;;;5203050;28;20449;-46
2023/05/17 09:20:35;;;;;;;8.17;3.20;;;13.60;42.20;;;;;;5202152;28;20430;-47
2023/05/17 09:23:09;;;;;;;4.80;1.93;;;13.80;43.00;;;;;;5199280;28;20597;-47
2023/05/17 09:25:49;;;;;;;10.07;2.60;;;13.80;42.50;;;;;;5196463;28;20462;-47
2023/05/17 09:28:20;;;;;;;7.40;2.30;;;13.70;42.60;;;;;;5202675;28;20430;-46
2023/05/17 09:30:50;;;;;;;6.10;2.70;;;13.90;42.80;;;;;;5203997;28;20843;-47
2023/05/17 09:33:21;;;;;;;6.87;2.70;;;14.00;43.20;;;;;;5200309;28;20526;-48
2023/05/17 09:35:52;;;;;;;5.53;2.23;;;13.90;43.30;;;;;;5200915;28;20235;-48
2023/05/17 09:38:26;;;;;;;10.53;2.70;;;14.10;43.60;;;;;;5203705;28;20453;-47
2023/05/17 09:40:59;;;;;;;11.80;2.70;;;14.30;42.90;;;;;;5216383;28;20294;-46
2023/05/17 09:43:30;;;;;;;7.30;2.83;;;14.30;42.50;;;;;;5199801;28;20481;-46
2023/05/17 09:46:01;;;;;;;16.63;2.50;;;14.10;42.50;;;;;;5200387;28;20518;-47
2023/05/17 09:48:31;;;;;;;10.20;3.00;;;14.10;42.20;;;;;;5201553;28;20474;-47
2023/05/17 09:51:02;;;;;;;4.67;2.50;;;13.90;42.40;;;;;;5202334;28;20192;-47
2023/05/17 09:53:41;;;;;;;11.43;2.80;;;13.90;43.10;;;;;;5203422;28;20219;-47
2023/05/17 09:56:12;;;;;;;10.80;2.87;;;13.70;42.60;;;;;;5216050;28;20211;-47
2023/05/17 09:58:42;;;;;;;7.70;3.60;;;13.50;43.20;;;;;;5198768;28;20961;-47
2023/05/17 10:01:14;;;;;;;13.33;2.23;;;13.70;42.90;;;;;;5200358;28;20442;-47
2023/05/17 10:03:44;;;;;;;16.30;3.50;;;13.60;42.30;;;;;;5203960;28;20771;-47
2023/05/17 10:06:18;;;;;;;6.67;2.47;;;13.80;43.00;;;;;;5199317;28;20582;-48
2023/05/17 10:08:55;;;;;;;9.77;2.50;;;14.00;42.80;;;;;;5202381;28;20285;-49
2023/05/17 10:11:32;;;;;;;10.00;3.30;;;13.90;42.80;;;;;;5197121;28;20449;-48
2023/05/17 10:14:17;;;;;;;4.90;2.20;;;14.00;42.50;;;;;;5208781;28;20457;-47
2023/05/17 10:16:48;;;;;;;4.00;2.33;;;14.00;42.00;;;;;;5209583;28;20477;-48
2023/05/17 10:19:20;;;;;;;9.60;3.13;;;14.10;42.40;;;;;;5200567;28;20557;-47
2023/05/17 10:21:52;;;;;;;3.80;2.67;;;14.20;42.20;;;;;;5196141;28;20443;-47
2023/05/17 10:24:25;;;;;;;16.10;2.27;;;14.00;41.80;;;;;;5201280;28;20831;-46
2023/05/17 10:26:56;;;;;;;7.93;1.97;;;13.90;41.90;;;;;;5198173;28;20487;-48
2023/05/17 10:29:30;;;;;;;6.33;1.87;;;13.80;42.50;;;;;;5200012;28;20518;-46
2023/05/17 10:32:04;;;;;;;9.57;2.37;;;13.80;41.60;;;;;;5201688;28;20426;-47
2023/05/17 10:34:37;;;;;;;12.40;2.70;;;13.90;41.10;;;;;;5199193;28;20990;-47
2023/05/17 10:37:10;;;;;;;10.33;2.73;;;13.90;41.00;;;;;;5201174;28;20466;-47
2023/05/17 10:39:42;;;;;;;9.33;2.70;;;13.70;41.00;;;;;;5199561;28;20560;-47
2023/05/17 10:42:16;;;;;;;5.73;1.93;;;13.60;40.50;;;;;;5200884;28;20953;-47
2023/05/17 10:44:47;;;;;;;7.10;2.77;;;13.60;40.60;;;;;;5201003;28;20547;-48
2023/05/17 10:47:18;;;;;;;21.80;6.30;;;13.50;40.90;;;;;;5203482;28;20450;-47
2023/05/17 10:49:50;;;;;;;10.67;2.60;;;13.70;40.90;;;;;;5196996;28;20435;-46
2023/05/17 10:52:22;;;;;;;12.30;2.07;;;13.80;41.00;;;;;;5199644;28;20868;-47
2023/05/17 10:54:53;;;;;;;5.87;2.03;;;14.00;40.70;;;;;;5201783;28;20457;-47
2023/05/17 10:57:34;;;;;;;15.47;2.43;;;14.10;40.50;;;;;;5200616;28;20458;-47
2023/05/17 11:00:06;;;;;;;3.87;2.43;;;14.20;40.30;;;;;;5200143;28;20219;-48
2023/05/17 11:02:41;;;;;;;11.77;3.03;;;14.20;41.10;;;;;;5200614;28;20434;-47
2023/05/17 11:05:25;;;;;;;18.53;4.20;;;14.30;40.60;;;;;;5212074;28;20584;-46
2023/05/17 11:08:16;;;;;;;8.27;2.40;;;14.40;40.30;;;;;;5198909;28;20430;-46
2023/05/17 11:11:17;;;;;;;9.33;2.67;;;14.50;40.20;;;;;;5198983;28;20438;-47
2023/05/17 11:13:53;;;;;;;6.33;3.17;;;14.30;40.20;;;;;;5191481;28;20446;-47
2023/05/17 11:16:35;;;;;;;9.50;2.40;;;14.10;40.80;;;;;;5197304;28;20469;-48
2023/05/17 11:19:10;;;;;;;7.60;2.40;;;14.20;41.60;;;;;;5199252;28;20934;-47
2023/05/17 11:21:47;;;;;;;6.83;2.47;;;14.10;40.90;;;;;;5200256;28;20438;-48
2023/05/17 11:24:27;;;;;;;7.67;2.60;;;14.30;41.10;;;;;;5199815;28;20556;-48
2023/05/17 11:26:59;;;;;;;8.83;2.33;;;14.40;40.70;;;;;;5201023;28;20437;-49
2023/05/17 11:29:30;;;;;;;10.20;2.20;;;14.60;40.50;;;;;;5201428;28;20461;-47
2023/05/17 11:32:06;;;;;;;7.33;2.27;;;14.40;39.90;;;;;;5202309;28;20479;-46
2023/05/17 11:34:37;;;;;;;6.07;2.30;;;14.30;40.50;;;;;;5201382;28;20211;-48
2023/05/17 11:37:10;;;;;;;4.50;2.00;;;14.30;40.50;;;;;;5202675;28;20453;-48
2023/05/17 11:40:04;;;;;;;9.23;2.93;;;14.20;40.50;;;;;;5200911;28;20446;-47
2023/05/17 11:42:36;;;;;;;9.77;2.87;;;14.20;41.00;;;;;;5202133;28;20775;-47
2023/05/17 11:45:07;;;;;;;9.30;2.70;;;14.30;41.20;;;;;;5201426;28;20508;-47
2023/05/17 11:47:39;;;;;;;11.63;4.23;;;14.50;41.10;;;;;;5202864;28;20983;-48
2023/05/17 11:50:10;;;;;;;3.97;2.40;;;14.60;40.00;;;;;;5205754;28;20430;-47
2023/05/17 11:52:42;;;;;;;4.83;2.40;;;14.60;39.50;;;;;;5205639;28;20438;-47
2023/05/17 11:55:14;;;;;;;4.93;1.53;;;14.60;39.80;;;;;;5205872;28;20445;-48
2023/05/17 11:57:46;;;;;;;4.60;3.00;;;14.80;39.30;;;;;;5203972;28;20545;-46
2023/05/17 12:00:26;;;;;;;3.83;3.33;;;15.00;39.00;;;;;;5205996;28;20519;-47
2023/05/17 12:02:56;;;;;;;2.57;1.97;;;14.90;38.60;;;;;;5203614;28;20421;-48
2023/05/17 12:05:27;;;;;;;4.23;2.43;;;15.10;38.60;;;;;;5214164;28;20474;-50
2023/05/17 12:07:58;;;;;;;10.67;2.50;;;15.00;39.50;;;;;;5199658;28;20537;-48
2023/05/17 12:10:31;;;;;;;8.40;2.40;;;15.10;39.80;;;;;;5200688;28;20555;-47
2023/05/17 12:13:02;;;;;;;6.60;2.93;;;15.20;39.60;;;;;;5206186;28;20214;-47
2023/05/17 12:15:37;;;;;;;3.93;1.97;;;15.40;39.90;;;;;;5205376;28;20926;-54
2023/05/17 12:18:07;;;;;;;18.03;2.57;;;15.40;39.70;;;;;;5207496;28;20429;-46
2023/05/17 12:20:38;;;;;;;7.80;2.83;;;15.30;38.20;;;;;;5206089;28;20433;-48
2023/05/17 12:23:08;;;;;;;5.30;2.00;;;15.10;38.50;;;;;;5204530;28;20302;-47
2023/05/17 12:25:39;;;;;;;7.87;2.33;;;15.10;38.60;;;;;;5201968;28;20731;-48
2023/05/17 12:28:21;;;;;;;5.17;1.80;;;14.90;37.60;;;;;;5201389;28;20187;-47
2023/05/17 12:31:01;;;;;;;15.83;1.73;;;14.90;38.00;;;;;;5214323;28;20658;-47
2023/05/17 12:33:39;;;;;;;14.43;2.53;;;15.00;38.40;;;;;;5203885;28;20931;-48
2023/05/17 12:36:11;;;;;;;5.20;2.10;;;15.10;38.90;;;;;;5206679;28;20828;-49
2023/05/17 12:38:43;;;;;;;4.53;2.23;;;15.00;38.20;;;;;;5205568;28;20406;-46
2023/05/17 12:41:15;;;;;;;7.83;2.30;;;15.00;38.20;;;;;;5199450;28;20947;-47
2023/05/17 12:43:46;;;;;;;3.40;1.50;;;15.00;38.80;;;;;;5201091;28;20454;-48
2023/05/17 12:46:18;;;;;;;7.80;2.03;;;15.00;38.30;;;;;;5202692;28;20458;-46
2023/05/17 12:48:50;;;;;;;6.83;2.07;;;14.90;38.90;;;;;;5201316;28;20180;-47
2023/05/17 12:51:22;;;;;;;8.67;2.23;;;14.90;39.10;;;;;;5201960;28;20925;-48
2023/05/17 12:53:55;;;;;;;4.57;2.40;;;15.00;38.80;;;;;;5201264;28;20423;-48
2023/05/17 12:56:28;;;;;;;6.10;2.63;;;15.00;39.10;;;;;;5204616;28;20549;-47
2023/05/17 12:59:24;;;;;;;5.27;3.10;;;15.10;38.70;;;;;;5199646;28;20431;-47
2023/05/17 13:01:56;;;;;;;9.27;2.03;;;15.00;38.40;;;;;;5203619;28;20810;-47
2023/05/17 13:04:32;;;;;;;6.53;2.17;;;15.10;38.80;;;;;;5216367;28;20501;-48
2023/05/17 13:07:04;;;;;;;8.20;2.40;;;15.20;38.70;;;;;;5202194;28;20453;-46
2023/05/17 13:09:46;;;;;;;6.53;2.50;;;15.40;38.50;;;;;;5201571;28;20430;-46
2023/05/17 13:12:23;;;;;;;8.30;3.97;;;15.50;37.60;;;;;;5202747;28;20530;-49
2023/05/17 13:14:54;;;;;;;7.70;2.50;;;15.40;37.40;;;;;;5198702;28;20424;-48